Accueil
METAR-TAF:

METAR-TAF

Aéroports :

Base aérienne

Meppen, Allemagne

latitude: 52-43-24N, longitude: 007-19-35E, altitude: 21 m

Observation

Le bulletin a été fait il y a 1 heure et 14 minutes, à 02:20 UTC
Vent 5 kt de ouest/sud-ouest
Température 11°C
Humidité 100%
Pression 1011 hPa

METAR: ETWM 020220Z AUTO 25005KT //// // ////// 11/11 Q1011 ///

Heure: 05:34 (03:34 UTC)


TAF: absent

Observations et prévisions météorologiques de plus de 4000 aéroports (messages METAR et TAF).

Les stations disponibles sont représentées par des disques jaunes et rouges sur la carte.

Passer la souris dessus pour voir le nom de la station.

Cliquer dessus pour voir les observations et prévisions météorologiques.

Pour changer de carte: cliquez sur les boutons verts avec une croix noire pour zoomer, sur le bouton vert avec un tiret pour effectuer un zoom arrière, ou sur les flèches vertes pour les cartes adjacentes.


METAR-TAF: